sensor_id;sensor_type;location;lat;lon;timestamp;temperature;humidity
29203;DHT22;16245;51.170;4.884;2022-07-22T00:01:02;16.80;99.90
29203;DHT22;16245;51.170;4.884;2022-07-22T00:03:27;16.80;99.90
29203;DHT22;16245;51.170;4.884;2022-07-22T00:05:53;16.80;99.90
29203;DHT22;16245;51.170;4.884;2022-07-22T00:08:18;16.80;99.90
29203;DHT22;16245;51.170;4.884;2022-07-22T00:10:44;16.80;99.90
29203;DHT22;16245;51.170;4.884;2022-07-22T00:13:10;16.70;99.90
29203;DHT22;16245;51.170;4.884;2022-07-22T00:15:35;16.60;99.90
29203;DHT22;16245;51.170;4.884;2022-07-22T00:18:01;16.60;99.90
29203;DHT22;16245;51.170;4.884;2022-07-22T00:20:27;16.60;99.90
29203;DHT22;16245;51.170;4.884;2022-07-22T00:22:53;16.70;99.90
29203;DHT22;16245;51.170;4.884;2022-07-22T00:25:18;16.60;99.90
29203;DHT22;16245;51.170;4.884;2022-07-22T00:27:44;16.40;99.90
29203;DHT22;16245;51.170;4.884;2022-07-22T00:30:10;16.40;99.90
29203;DHT22;16245;51.170;4.884;2022-07-22T00:32:36;16.40;99.90
29203;DHT22;16245;51.170;4.884;2022-07-22T00:35:01;16.40;99.90
29203;DHT22;16245;51.170;4.884;2022-07-22T00:37:27;16.30;99.90
29203;DHT22;16245;51.170;4.884;2022-07-22T00:39:53;16.50;99.90
29203;DHT22;16245;51.170;4.884;2022-07-22T00:42:18;16.40;99.90
29203;DHT22;16245;51.170;4.884;2022-07-22T00:44:44;16.40;99.90
29203;DHT22;16245;51.170;4.884;2022-07-22T00:47:11;16.30;99.90
29203;DHT22;16245;51.170;4.884;2022-07-22T00:49:37;16.20;99.90
29203;DHT22;16245;51.170;4.884;2022-07-22T00:52:02;16.20;99.90
29203;DHT22;16245;51.170;4.884;2022-07-22T00:54:30;16.20;99.90
29203;DHT22;16245;51.170;4.884;2022-07-22T00:56:56;16.20;99.90
29203;DHT22;16245;51.170;4.884;2022-07-22T00:59:22;16.20;99.90
29203;DHT22;16245;51.170;4.884;2022-07-22T01:01:47;16.20;99.90
29203;DHT22;16245;51.170;4.884;2022-07-22T01:04:13;16.20;99.90
29203;DHT22;16245;51.170;4.884;2022-07-22T01:06:39;16.20;99.90
29203;DHT22;16245;51.170;4.884;2022-07-22T01:09:10;16.20;99.90
29203;DHT22;16245;51.170;4.884;2022-07-22T01:11:37;16.20;99.90
29203;DHT22;16245;51.170;4.884;2022-07-22T01:14:02;16.20;99.90
29203;DHT22;16245;51.170;4.884;2022-07-22T01:16:28;16.30;99.90
29203;DHT22;16245;51.170;4.884;2022-07-22T01:18:54;16.30;99.90
29203;DHT22;16245;51.170;4.884;2022-07-22T01:21:20;16.30;99.90
29203;DHT22;16245;51.170;4.884;2022-07-22T01:23:47;16.30;99.90
29203;DHT22;16245;51.170;4.884;2022-07-22T01:26:13;16.20;99.90
29203;DHT22;16245;51.170;4.884;2022-07-22T01:28:39;16.20;99.90
29203;DHT22;16245;51.170;4.884;2022-07-22T01:31:05;16.20;99.90
29203;DHT22;16245;51.170;4.884;2022-07-22T01:33:31;16.20;99.90
29203;DHT22;16245;51.170;4.884;2022-07-22T01:35:56;16.20;99.90
29203;DHT22;16245;51.170;4.884;2022-07-22T01:38:22;16.10;99.90
29203;DHT22;16245;51.170;4.884;2022-07-22T01:40:48;16.00;99.90
29203;DHT22;16245;51.170;4.884;2022-07-22T01:43:15;16.00;99.90
29203;DHT22;16245;51.170;4.884;2022-07-22T01:45:47;15.90;99.90
29203;DHT22;16245;51.170;4.884;2022-07-22T01:48:12;15.90;99.90
29203;DHT22;16245;51.170;4.884;2022-07-22T01:50:39;15.80;99.90
29203;DHT22;16245;51.170;4.884;2022-07-22T01:53:04;15.80;99.90
29203;DHT22;16245;51.170;4.884;2022-07-22T01:55:30;15.70;99.90
29203;DHT22;16245;51.170;4.884;2022-07-22T01:57:55;15.70;99.90
29203;DHT22;16245;51.170;4.884;2022-07-22T02:00:21;15.60;99.90
29203;DHT22;16245;51.170;4.884;2022-07-22T02:02:47;15.60;99.90
29203;DHT22;16245;51.170;4.884;2022-07-22T02:05:13;15.50;99.90
29203;DHT22;16245;51.170;4.884;2022-07-22T02:07:38;15.50;99.90
29203;DHT22;16245;51.170;4.884;2022-07-22T02:10:05;15.40;99.90
29203;DHT22;16245;51.170;4.884;2022-07-22T02:12:31;15.40;99.90
29203;DHT22;16245;51.170;4.884;2022-07-22T02:14:57;15.50;99.90
29203;DHT22;16245;51.170;4.884;2022-07-22T02:17:22;15.40;99.90
29203;DHT22;16245;51.170;4.884;2022-07-22T02:19:48;15.40;99.90
29203;DHT22;16245;51.170;4.884;2022-07-22T02:22:14;15.30;99.90
29203;DHT22;16245;51.170;4.884;2022-07-22T02:24:40;15.40;99.90
29203;DHT22;16245;51.170;4.884;2022-07-22T02:27:05;15.40;99.90
29203;DHT22;16245;51.170;4.884;2022-07-22T02:29:32;15.30;99.90
29203;DHT22;16245;51.170;4.884;2022-07-22T02:31:58;15.20;99.90
29203;DHT22;16245;51.170;4.884;2022-07-22T02:34:24;15.10;99.90
29203;DHT22;16245;51.170;4.884;2022-07-22T02:36:50;15.10;99.90
29203;DHT22;16245;51.170;4.884;2022-07-22T02:39:16;15.10;99.90
29203;DHT22;16245;51.170;4.884;2022-07-22T02:41:41;15.10;99.90
29203;DHT22;16245;51.170;4.884;2022-07-22T02:44:07;15.10;99.90
29203;DHT22;16245;51.170;4.884;2022-07-22T02:46:32;15.10;99.90
29203;DHT22;16245;51.170;4.884;2022-07-22T02:48:58;15.20;99.90
29203;DHT22;16245;51.170;4.884;2022-07-22T02:51:24;15.20;99.90
29203;DHT22;16245;51.170;4.884;2022-07-22T02:53:50;15.20;99.90
29203;DHT22;16245;51.170;4.884;2022-07-22T02:56:16;15.20;99.90
29203;DHT22;16245;51.170;4.884;2022-07-22T02:58:42;15.20;99.90
29203;DHT22;16245;51.170;4.884;2022-07-22T03:01:08;15.30;99.90
29203;DHT22;16245;51.170;4.884;2022-07-22T03:03:33;15.20;99.90
29203;DHT22;16245;51.170;4.884;2022-07-22T03:05:59;15.20;99.90
29203;DHT22;16245;51.170;4.884;2022-07-22T03:08:25;15.20;99.90
29203;DHT22;16245;51.170;4.884;2022-07-22T03:10:51;15.30;99.90
29203;DHT22;16245;51.170;4.884;2022-07-22T03:13:17;15.40;99.90
29203;DHT22;16245;51.170;4.884;2022-07-22T03:15:42;15.50;99.90
29203;DHT22;16245;51.170;4.884;2022-07-22T03:18:08;15.50;99.90
29203;DHT22;16245;51.170;4.884;2022-07-22T03:20:34;15.50;99.90
29203;DHT22;16245;51.170;4.884;2022-07-22T03:23:00;15.60;99.90
29203;DHT22;16245;51.170;4.884;2022-07-22T03:25:25;15.60;99.90
29203;DHT22;16245;51.170;4.884;2022-07-22T03:27:51;15.70;99.90
29203;DHT22;16245;51.170;4.884;2022-07-22T03:30:17;15.70;99.90
29203;DHT22;16245;51.170;4.884;2022-07-22T03:32:42;15.70;99.90
29203;DHT22;16245;51.170;4.884;2022-07-22T03:35:13;15.60;99.90
29203;DHT22;16245;51.170;4.884;2022-07-22T03:37:39;15.60;99.90
29203;DHT22;16245;51.170;4.884;2022-07-22T03:40:05;15.60;99.90
29203;DHT22;16245;51.170;4.884;2022-07-22T03:42:31;15.60;99.90
29203;DHT22;16245;51.170;4.884;2022-07-22T03:44:56;15.60;99.90
29203;DHT22;16245;51.170;4.884;2022-07-22T03:47:22;15.50;99.90
29203;DHT22;16245;51.170;4.884;2022-07-22T03:49:49;15.50;99.90
29203;DHT22;16245;51.170;4.884;2022-07-22T03:52:15;15.50;99.90
29203;DHT22;16245;51.170;4.884;2022-07-22T03:54:42;15.40;99.90
29203;DHT22;16245;51.170;4.884;2022-07-22T03:57:07;15.30;99.90
29203;DHT22;16245;51.170;4.884;2022-07-22T03:59:33;15.30;99.90
29203;DHT22;16245;51.170;4.884;2022-07-22T04:01:59;15.20;99.90
29203;DHT22;16245;51.170;4.884;2022-07-22T04:04:25;15.20;99.90
29203;DHT22;16245;51.170;4.884;2022-07-22T04:06:50;15.20;99.90
29203;DHT22;16245;51.170;4.884;2022-07-22T04:09:19;15.20;99.90
29203;DHT22;16245;51.170;4.884;2022-07-22T04:11:45;15.10;99.90
29203;DHT22;16245;51.170;4.884;2022-07-22T04:14:11;15.00;99.90
29203;DHT22;16245;51.170;4.884;2022-07-22T04:16:37;15.00;99.90
29203;DHT22;16245;51.170;4.884;2022-07-22T04:19:03;15.00;99.90
29203;DHT22;16245;51.170;4.884;2022-07-22T04:21:29;15.00;99.90
29203;DHT22;16245;51.170;4.884;2022-07-22T04:23:55;15.00;99.90
29203;DHT22;16245;51.170;4.884;2022-07-22T04:26:21;15.00;99.90
29203;DHT22;16245;51.170;4.884;2022-07-22T04:28:48;15.00;99.90
29203;DHT22;16245;51.170;4.884;2022-07-22T04:31:13;15.00;99.90
29203;DHT22;16245;51.170;4.884;2022-07-22T04:33:39;15.00;99.90
29203;DHT22;16245;51.170;4.884;2022-07-22T04:36:05;14.90;99.90
29203;DHT22;16245;51.170;4.884;2022-07-22T04:38:30;15.00;99.90
29203;DHT22;16245;51.170;4.884;2022-07-22T04:40:56;15.00;99.90
29203;DHT22;16245;51.170;4.884;2022-07-22T04:43:23;15.10;99.90
29203;DHT22;16245;51.170;4.884;2022-07-22T04:45:48;15.10;99.90
29203;DHT22;16245;51.170;4.884;2022-07-22T04:48:14;15.20;99.90
29203;DHT22;16245;51.170;4.884;2022-07-22T04:50:40;15.40;99.90
29203;DHT22;16245;51.170;4.884;2022-07-22T04:53:05;15.60;99.90
29203;DHT22;16245;51.170;4.884;2022-07-22T04:55:31;15.90;99.90
29203;DHT22;16245;51.170;4.884;2022-07-22T04:57:57;16.10;99.90
29203;DHT22;16245;51.170;4.884;2022-07-22T05:00:23;16.30;99.90
29203;DHT22;16245;51.170;4.884;2022-07-22T05:02:49;16.60;99.90
29203;DHT22;16245;51.170;4.884;2022-07-22T05:05:15;16.90;99.90
29203;DHT22;16245;51.170;4.884;2022-07-22T05:07:41;17.20;99.90
29203;DHT22;16245;51.170;4.884;2022-07-22T05:10:07;17.40;99.90
29203;DHT22;16245;51.170;4.884;2022-07-22T05:12:33;17.70;99.90
29203;DHT22;16245;51.170;4.884;2022-07-22T05:14:59;18.00;99.90
29203;DHT22;16245;51.170;4.884;2022-07-22T05:17:24;18.30;99.90
29203;DHT22;16245;51.170;4.884;2022-07-22T05:19:50;18.60;99.90
29203;DHT22;16245;51.170;4.884;2022-07-22T05:22:16;18.80;99.90
29203;DHT22;16245;51.170;4.884;2022-07-22T05:24:41;19.10;99.90
29203;DHT22;16245;51.170;4.884;2022-07-22T05:27:07;19.40;99.90
29203;DHT22;16245;51.170;4.884;2022-07-22T05:29:33;19.80;99.90
29203;DHT22;16245;51.170;4.884;2022-07-22T05:31:58;20.10;99.90
29203;DHT22;16245;51.170;4.884;2022-07-22T05:34:24;20.30;99.90
29203;DHT22;16245;51.170;4.884;2022-07-22T05:36:50;20.70;99.90
29203;DHT22;16245;51.170;4.884;2022-07-22T05:39:16;21.00;99.90
29203;DHT22;16245;51.170;4.884;2022-07-22T05:41:41;21.30;99.90
29203;DHT22;16245;51.170;4.884;2022-07-22T05:44:07;21.50;99.90
29203;DHT22;16245;51.170;4.884;2022-07-22T05:46:32;21.80;99.90
29203;DHT22;16245;51.170;4.884;2022-07-22T05:48:58;22.20;99.90
29203;DHT22;16245;51.170;4.884;2022-07-22T05:51:24;22.60;99.90
29203;DHT22;16245;51.170;4.884;2022-07-22T05:53:49;23.00;99.90
29203;DHT22;16245;51.170;4.884;2022-07-22T05:56:15;23.30;99.90
29203;DHT22;16245;51.170;4.884;2022-07-22T05:58:42;23.70;99.90
29203;DHT22;16245;51.170;4.884;2022-07-22T06:01:11;24.10;99.90
29203;DHT22;16245;51.170;4.884;2022-07-22T06:03:37;24.50;99.90
29203;DHT22;16245;51.170;4.884;2022-07-22T06:06:03;24.70;99.90
29203;DHT22;16245;51.170;4.884;2022-07-22T06:08:30;24.80;99.90
29203;DHT22;16245;51.170;4.884;2022-07-22T06:10:57;25.20;99.90
29203;DHT22;16245;51.170;4.884;2022-07-22T06:13:24;25.30;99.90
29203;DHT22;16245;51.170;4.884;2022-07-22T06:15:50;25.60;99.90
29203;DHT22;16245;51.170;4.884;2022-07-22T06:18:16;25.80;99.90
29203;DHT22;16245;51.170;4.884;2022-07-22T06:20:42;26.20;99.90
29203;DHT22;16245;51.170;4.884;2022-07-22T06:23:08;26.30;99.90
29203;DHT22;16245;51.170;4.884;2022-07-22T06:25:33;26.50;99.90
29203;DHT22;16245;51.170;4.884;2022-07-22T06:27:59;26.60;99.90
29203;DHT22;16245;51.170;4.884;2022-07-22T06:30:25;26.70;99.90
29203;DHT22;16245;51.170;4.884;2022-07-22T06:32:52;27.00;99.90
29203;DHT22;16245;51.170;4.884;2022-07-22T06:35:18;27.20;98.70
29203;DHT22;16245;51.170;4.884;2022-07-22T06:37:44;27.50;98.20
29203;DHT22;16245;51.170;4.884;2022-07-22T06:40:10;27.80;97.30
29203;DHT22;16245;51.170;4.884;2022-07-22T06:42:36;27.70;95.50
29203;DHT22;16245;51.170;4.884;2022-07-22T06:45:02;27.40;96.90
29203;DHT22;16245;51.170;4.884;2022-07-22T06:47:28;27.40;96.40
29203;DHT22;16245;51.170;4.884;2022-07-22T06:49:54;27.40;96.10
29203;DHT22;16245;51.170;4.884;2022-07-22T06:52:20;27.70;96.30
29203;DHT22;16245;51.170;4.884;2022-07-22T06:54:46;27.80;95.90
29203;DHT22;16245;51.170;4.884;2022-07-22T06:57:11;28.00;94.80
29203;DHT22;16245;51.170;4.884;2022-07-22T06:59:37;28.00;95.20
29203;DHT22;16245;51.170;4.884;2022-07-22T07:02:02;28.20;94.70
29203;DHT22;16245;51.170;4.884;2022-07-22T07:04:28;28.40;95.50
29203;DHT22;16245;51.170;4.884;2022-07-22T07:06:55;28.50;93.60
29203;DHT22;16245;51.170;4.884;2022-07-22T07:09:20;29.00;91.70
29203;DHT22;16245;51.170;4.884;2022-07-22T07:11:46;29.30;90.40
29203;DHT22;16245;51.170;4.884;2022-07-22T07:14:12;29.00;91.90
29203;DHT22;16245;51.170;4.884;2022-07-22T07:16:37;28.60;92.10
29203;DHT22;16245;51.170;4.884;2022-07-22T07:19:03;28.30;91.50
29203;DHT22;16245;51.170;4.884;2022-07-22T07:21:29;28.10;92.40
29203;DHT22;16245;51.170;4.884;2022-07-22T07:23:55;28.00;90.30
29203;DHT22;16245;51.170;4.884;2022-07-22T07:26:20;28.00;90.90
29203;DHT22;16245;51.170;4.884;2022-07-22T07:28:46;27.50;92.10
29203;DHT22;16245;51.170;4.884;2022-07-22T07:31:12;27.90;91.10
29203;DHT22;16245;51.170;4.884;2022-07-22T07:33:38;27.90;92.30
29203;DHT22;16245;51.170;4.884;2022-07-22T07:36:04;28.20;91.00
29203;DHT22;16245;51.170;4.884;2022-07-22T07:38:29;28.50;88.60
29203;DHT22;16245;51.170;4.884;2022-07-22T07:40:55;27.60;89.70
29203;DHT22;16245;51.170;4.884;2022-07-22T07:43:21;27.00;90.90
29203;DHT22;16245;51.170;4.884;2022-07-22T07:45:46;26.30;91.20
29203;DHT22;16245;51.170;4.884;2022-07-22T07:48:12;25.70;90.50
29203;DHT22;16245;51.170;4.884;2022-07-22T07:50:38;25.30;91.70
29203;DHT22;16245;51.170;4.884;2022-07-22T07:53:04;25.00;92.60
29203;DHT22;16245;51.170;4.884;2022-07-22T07:55:30;24.60;93.80
29203;DHT22;16245;51.170;4.884;2022-07-22T07:57:55;24.50;93.60
29203;DHT22;16245;51.170;4.884;2022-07-22T08:00:23;24.70;93.50
29203;DHT22;16245;51.170;4.884;2022-07-22T08:02:50;24.60;93.90
29203;DHT22;16245;51.170;4.884;2022-07-22T08:05:16;24.90;94.50
29203;DHT22;16245;51.170;4.884;2022-07-22T08:07:46;25.50;94.30
29203;DHT22;16245;51.170;4.884;2022-07-22T08:10:11;26.30;92.20
29203;DHT22;16245;51.170;4.884;2022-07-22T08:12:37;26.90;92.30
29203;DHT22;16245;51.170;4.884;2022-07-22T08:15:03;27.10;91.50
29203;DHT22;16245;51.170;4.884;2022-07-22T08:17:29;26.80;92.20
29203;DHT22;16245;51.170;4.884;2022-07-22T08:19:54;26.90;92.10
29203;DHT22;16245;51.170;4.884;2022-07-22T08:22:20;27.20;92.00
29203;DHT22;16245;51.170;4.884;2022-07-22T08:24:46;27.30;90.70
29203;DHT22;16245;51.170;4.884;2022-07-22T08:27:11;27.20;91.00
29203;DHT22;16245;51.170;4.884;2022-07-22T08:29:37;27.20;90.50
29203;DHT22;16245;51.170;4.884;2022-07-22T08:32:03;26.70;89.50
29203;DHT22;16245;51.170;4.884;2022-07-22T08:34:29;26.40;91.90
29203;DHT22;16245;51.170;4.884;2022-07-22T08:36:54;26.10;92.10
29203;DHT22;16245;51.170;4.884;2022-07-22T08:39:20;26.10;91.20
29203;DHT22;16245;51.170;4.884;2022-07-22T08:41:46;25.90;92.00
29203;DHT22;16245;51.170;4.884;2022-07-22T08:44:11;25.90;90.50
29203;DHT22;16245;51.170;4.884;2022-07-22T08:46:37;25.70;91.50
29203;DHT22;16245;51.170;4.884;2022-07-22T08:49:03;25.50;92.20
29203;DHT22;16245;51.170;4.884;2022-07-22T08:51:31;25.50;90.80
29203;DHT22;16245;51.170;4.884;2022-07-22T08:53:58;25.60;92.20
29203;DHT22;16245;51.170;4.884;2022-07-22T08:56:23;25.70;91.50
29203;DHT22;16245;51.170;4.884;2022-07-22T08:58:49;25.60;92.20
29203;DHT22;16245;51.170;4.884;2022-07-22T09:01:16;25.80;93.00
29203;DHT22;16245;51.170;4.884;2022-07-22T09:03:48;26.60;92.40
29203;DHT22;16245;51.170;4.884;2022-07-22T09:06:15;27.30;91.10
29203;DHT22;16245;51.170;4.884;2022-07-22T09:08:59;27.70;90.10
29203;DHT22;16245;51.170;4.884;2022-07-22T09:11:27;27.90;86.50
29203;DHT22;16245;51.170;4.884;2022-07-22T09:13:55;27.70;89.70
29203;DHT22;16245;51.170;4.884;2022-07-22T09:19:05;27.80;90.90
29203;DHT22;16245;51.170;4.884;2022-07-22T09:21:31;28.60;88.80
29203;DHT22;16245;51.170;4.884;2022-07-22T09:23:57;28.90;88.90
29203;DHT22;16245;51.170;4.884;2022-07-22T09:26:37;29.40;86.10
29203;DHT22;16245;51.170;4.884;2022-07-22T09:29:05;30.30;80.30
29203;DHT22;16245;51.170;4.884;2022-07-22T09:31:33;30.00;81.50
29203;DHT22;16245;51.170;4.884;2022-07-22T09:34:00;29.30;78.60
29203;DHT22;16245;51.170;4.884;2022-07-22T09:36:26;29.00;81.00
29203;DHT22;16245;51.170;4.884;2022-07-22T09:38:52;28.70;85.00
29203;DHT22;16245;51.170;4.884;2022-07-22T09:41:18;28.40;84.50
29203;DHT22;16245;51.170;4.884;2022-07-22T09:43:44;28.20;87.60
29203;DHT22;16245;51.170;4.884;2022-07-22T09:46:10;28.20;84.50
29203;DHT22;16245;51.170;4.884;2022-07-22T09:48:40;28.50;83.80
29203;DHT22;16245;51.170;4.884;2022-07-22T09:51:06;29.10;85.40
29203;DHT22;16245;51.170;4.884;2022-07-22T09:53:33;29.30;81.30
29203;DHT22;16245;51.170;4.884;2022-07-22T09:56:00;29.90;80.50
29203;DHT22;16245;51.170;4.884;2022-07-22T09:58:27;29.70;82.70
29203;DHT22;16245;51.170;4.884;2022-07-22T10:01:03;29.30;84.50
29203;DHT22;16245;51.170;4.884;2022-07-22T10:03:31;29.30;82.10
29203;DHT22;16245;51.170;4.884;2022-07-22T10:05:58;29.20;82.40
29203;DHT22;16245;51.170;4.884;2022-07-22T10:08:28;29.10;84.50
29203;DHT22;16245;51.170;4.884;2022-07-22T10:11:03;29.60;83.40
29203;DHT22;16245;51.170;4.884;2022-07-22T10:13:29;30.20;78.80
29203;DHT22;16245;51.170;4.884;2022-07-22T10:15:56;30.10;76.10
29203;DHT22;16245;51.170;4.884;2022-07-22T10:18:23;29.90;75.60
29203;DHT22;16245;51.170;4.884;2022-07-22T10:21:09;29.80;80.50
29203;DHT22;16245;51.170;4.884;2022-07-22T10:23:36;29.60;81.90
29203;DHT22;16245;51.170;4.884;2022-07-22T10:26:51;29.30;82.30
29203;DHT22;16245;51.170;4.884;2022-07-22T10:29:32;29.50;80.70
29203;DHT22;16245;51.170;4.884;2022-07-22T10:34:43;29.30;81.80
29203;DHT22;16245;51.170;4.884;2022-07-22T10:40:11;29.30;81.20
29203;DHT22;16245;51.170;4.884;2022-07-22T10:48:06;28.90;82.60
29203;DHT22;16245;51.170;4.884;2022-07-22T10:53:18;29.50;82.50
29203;DHT22;16245;51.170;4.884;2022-07-22T10:56:15;30.00;76.90
29203;DHT22;16245;51.170;4.884;2022-07-22T10:58:45;30.40;76.30
29203;DHT22;16245;51.170;4.884;2022-07-22T11:01:14;30.80;76.60
29203;DHT22;16245;51.170;4.884;2022-07-22T11:03:41;31.20;77.90
29203;DHT22;16245;51.170;4.884;2022-07-22T11:08:41;30.80;77.50
29203;DHT22;16245;51.170;4.884;2022-07-22T11:11:07;31.40;74.20
29203;DHT22;16245;51.170;4.884;2022-07-22T11:13:37;32.00;72.30
29203;DHT22;16245;51.170;4.884;2022-07-22T11:16:19;32.50;73.80
29203;DHT22;16245;51.170;4.884;2022-07-22T11:21:23;33.20;73.00
29203;DHT22;16245;51.170;4.884;2022-07-22T11:23:51;33.10;74.50
29203;DHT22;16245;51.170;4.884;2022-07-22T11:26:20;33.00;70.80
29203;DHT22;16245;51.170;4.884;2022-07-22T11:28:48;32.80;72.80
29203;DHT22;16245;51.170;4.884;2022-07-22T11:31:16;32.70;72.80
29203;DHT22;16245;51.170;4.884;2022-07-22T11:33:43;32.80;70.00
29203;DHT22;16245;51.170;4.884;2022-07-22T11:36:09;32.70;69.50
29203;DHT22;16245;51.170;4.884;2022-07-22T11:38:42;32.00;72.10
29203;DHT22;16245;51.170;4.884;2022-07-22T11:41:08;30.90;71.90
29203;DHT22;16245;51.170;4.884;2022-07-22T11:43:48;30.50;74.30
29203;DHT22;16245;51.170;4.884;2022-07-22T11:46:16;29.80;74.20
29203;DHT22;16245;51.170;4.884;2022-07-22T11:48:42;29.20;76.60
29203;DHT22;16245;51.170;4.884;2022-07-22T11:51:10;29.10;80.70
29203;DHT22;16245;51.170;4.884;2022-07-22T11:53:39;29.00;78.00
29203;DHT22;16245;51.170;4.884;2022-07-22T11:56:07;28.80;80.10
29203;DHT22;16245;51.170;4.884;2022-07-22T11:58:41;28.70;82.90
29203;DHT22;16245;51.170;4.884;2022-07-22T12:01:13;29.00;80.10
29203;DHT22;16245;51.170;4.884;2022-07-22T12:03:44;29.30;79.40
29203;DHT22;16245;51.170;4.884;2022-07-22T12:06:12;29.20;79.90
29203;DHT22;16245;51.170;4.884;2022-07-22T12:08:46;29.50;79.80
29203;DHT22;16245;51.170;4.884;2022-07-22T12:11:15;29.50;79.40
29203;DHT22;16245;51.170;4.884;2022-07-22T12:13:48;29.50;80.10
29203;DHT22;16245;51.170;4.884;2022-07-22T12:16:20;29.60;78.60
29203;DHT22;16245;51.170;4.884;2022-07-22T12:18:56;29.50;79.60
29203;DHT22;16245;51.170;4.884;2022-07-22T12:21:24;29.60;79.50
29203;DHT22;16245;51.170;4.884;2022-07-22T12:23:54;29.70;77.30
29203;DHT22;16245;51.170;4.884;2022-07-22T12:26:43;29.80;77.80
29203;DHT22;16245;51.170;4.884;2022-07-22T12:31:43;29.50;79.90
29203;DHT22;16245;51.170;4.884;2022-07-22T12:34:09;29.50;80.70
29203;DHT22;16245;51.170;4.884;2022-07-22T12:36:35;29.20;80.50
29203;DHT22;16245;51.170;4.884;2022-07-22T12:39:15;29.30;77.30
29203;DHT22;16245;51.170;4.884;2022-07-22T12:41:54;28.70;81.30
29203;DHT22;16245;51.170;4.884;2022-07-22T12:44:25;28.70;81.80
29203;DHT22;16245;51.170;4.884;2022-07-22T12:46:53;28.60;79.20
29203;DHT22;16245;51.170;4.884;2022-07-22T12:49:24;28.40;80.20
29203;DHT22;16245;51.170;4.884;2022-07-22T12:52:07;28.00;79.40
29203;DHT22;16245;51.170;4.884;2022-07-22T12:54:34;28.00;82.10
29203;DHT22;16245;51.170;4.884;2022-07-22T12:57:00;28.10;81.90
29203;DHT22;16245;51.170;4.884;2022-07-22T12:59:26;28.20;83.00
29203;DHT22;16245;51.170;4.884;2022-07-22T13:01:52;28.20;84.00
29203;DHT22;16245;51.170;4.884;2022-07-22T13:04:17;28.20;82.90
29203;DHT22;16245;51.170;4.884;2022-07-22T13:06:43;28.40;80.80
29203;DHT22;16245;51.170;4.884;2022-07-22T13:09:09;28.30;81.50
29203;DHT22;16245;51.170;4.884;2022-07-22T13:11:34;28.20;83.40
29203;DHT22;16245;51.170;4.884;2022-07-22T13:14:12;28.20;83.70
29203;DHT22;16245;51.170;4.884;2022-07-22T13:16:38;28.50;82.30
29203;DHT22;16245;51.170;4.884;2022-07-22T13:19:04;28.40;82.70
29203;DHT22;16245;51.170;4.884;2022-07-22T13:21:29;28.40;82.70
29203;DHT22;16245;51.170;4.884;2022-07-22T13:23:55;28.30;82.50
29203;DHT22;16245;51.170;4.884;2022-07-22T13:26:21;28.50;83.90
29203;DHT22;16245;51.170;4.884;2022-07-22T13:28:47;28.70;82.40
29203;DHT22;16245;51.170;4.884;2022-07-22T13:31:12;28.90;80.60
29203;DHT22;16245;51.170;4.884;2022-07-22T13:33:38;29.00;79.90
29203;DHT22;16245;51.170;4.884;2022-07-22T13:36:04;28.80;79.60
29203;DHT22;16245;51.170;4.884;2022-07-22T13:38:30;28.70;81.00
29203;DHT22;16245;51.170;4.884;2022-07-22T13:40:56;28.50;82.30
29203;DHT22;16245;51.170;4.884;2022-07-22T13:43:23;28.50;82.10
29203;DHT22;16245;51.170;4.884;2022-07-22T13:45:50;28.40;82.00
29203;DHT22;16245;51.170;4.884;2022-07-22T13:48:16;28.50;81.40
29203;DHT22;16245;51.170;4.884;2022-07-22T13:50:45;28.30;80.50
29203;DHT22;16245;51.170;4.884;2022-07-22T13:53:11;28.20;81.10
29203;DHT22;16245;51.170;4.884;2022-07-22T13:55:40;28.30;82.30
29203;DHT22;16245;51.170;4.884;2022-07-22T13:58:06;28.30;83.30
29203;DHT22;16245;51.170;4.884;2022-07-22T14:00:33;28.30;83.40
29203;DHT22;16245;51.170;4.884;2022-07-22T14:02:59;28.40;84.20
29203;DHT22;16245;51.170;4.884;2022-07-22T14:10:48;28.70;80.70
29203;DHT22;16245;51.170;4.884;2022-07-22T14:13:13;28.50;82.50
29203;DHT22;16245;51.170;4.884;2022-07-22T14:16:46;28.50;82.20
29203;DHT22;16245;51.170;4.884;2022-07-22T14:19:14;28.40;81.90
29203;DHT22;16245;51.170;4.884;2022-07-22T14:21:43;28.30;82.00
29203;DHT22;16245;51.170;4.884;2022-07-22T14:24:10;28.30;82.40
29203;DHT22;16245;51.170;4.884;2022-07-22T14:26:36;28.20;83.50
29203;DHT22;16245;51.170;4.884;2022-07-22T14:29:04;28.10;82.10
29203;DHT22;16245;51.170;4.884;2022-07-22T14:31:32;28.00;83.20
29203;DHT22;16245;51.170;4.884;2022-07-22T14:33:57;27.90;83.30
29203;DHT22;16245;51.170;4.884;2022-07-22T14:36:23;28.10;83.40
29203;DHT22;16245;51.170;4.884;2022-07-22T14:38:49;28.00;83.50
29203;DHT22;16245;51.170;4.884;2022-07-22T14:41:19;27.80;82.50
29203;DHT22;16245;51.170;4.884;2022-07-22T14:43:45;27.70;83.70
29203;DHT22;16245;51.170;4.884;2022-07-22T14:46:10;27.50;83.60
29203;DHT22;16245;51.170;4.884;2022-07-22T14:48:38;27.30;85.70
29203;DHT22;16245;51.170;4.884;2022-07-22T14:51:04;27.30;85.50
29203;DHT22;16245;51.170;4.884;2022-07-22T14:53:30;27.40;85.50
29203;DHT22;16245;51.170;4.884;2022-07-22T14:55:56;27.40;85.30
29203;DHT22;16245;51.170;4.884;2022-07-22T14:58:22;27.50;87.50
29203;DHT22;16245;51.170;4.884;2022-07-22T15:00:48;27.40;85.50
29203;DHT22;16245;51.170;4.884;2022-07-22T15:03:14;27.40;86.00
29203;DHT22;16245;51.170;4.884;2022-07-22T15:05:39;27.30;86.10
29203;DHT22;16245;51.170;4.884;2022-07-22T15:08:07;27.30;85.30
29203;DHT22;16245;51.170;4.884;2022-07-22T15:10:32;27.30;85.10
29203;DHT22;16245;51.170;4.884;2022-07-22T15:12:58;27.10;85.70
29203;DHT22;16245;51.170;4.884;2022-07-22T15:15:24;27.00;86.40
29203;DHT22;16245;51.170;4.884;2022-07-22T15:17:50;27.00;85.50
29203;DHT22;16245;51.170;4.884;2022-07-22T15:20:16;26.90;85.30
29203;DHT22;16245;51.170;4.884;2022-07-22T15:22:41;26.90;86.10
29203;DHT22;16245;51.170;4.884;2022-07-22T15:25:07;26.70;86.90
29203;DHT22;16245;51.170;4.884;2022-07-22T15:27:33;26.60;88.00
29203;DHT22;16245;51.170;4.884;2022-07-22T15:30:04;26.60;87.90
29203;DHT22;16245;51.170;4.884;2022-07-22T15:32:30;26.60;87.30
29203;DHT22;16245;51.170;4.884;2022-07-22T15:34:56;26.60;87.60
29203;DHT22;16245;51.170;4.884;2022-07-22T15:37:21;26.50;87.70
29203;DHT22;16245;51.170;4.884;2022-07-22T15:39:48;26.40;88.70
29203;DHT22;16245;51.170;4.884;2022-07-22T15:42:14;26.40;88.00
29203;DHT22;16245;51.170;4.884;2022-07-22T15:44:40;26.20;88.40
29203;DHT22;16245;51.170;4.884;2022-07-22T15:47:05;26.20;89.10
29203;DHT22;16245;51.170;4.884;2022-07-22T15:49:31;26.10;88.50
29203;DHT22;16245;51.170;4.884;2022-07-22T15:51:57;26.10;89.20
29203;DHT22;16245;51.170;4.884;2022-07-22T15:54:22;26.10;89.20
29203;DHT22;16245;51.170;4.884;2022-07-22T15:56:48;26.10;87.90
29203;DHT22;16245;51.170;4.884;2022-07-22T15:59:14;26.00;87.30